Terminal Aerodrome Forecast
Issued by NWS

Home | Current Version | Previous Version | Text Only | Print | Product List | Glossary On
Versions: 1 2 3 4 5 6 7 8 9 10 11 12 13 14 15 16 17 18
000
FTUS42 KILM 101400 AAB
TAFCRE
TAF AMD
KCRE 101442Z 1015/1112 17007KT P6SM BKN012
     FM101600 20010KT P6SM VCSH SCT015 SCT120
     FM101800 19014G22KT P6SM SCT035 SCT120
     FM110100 21009KT P6SM VCSH SCT035 BKN100
      TEMPO 1102/1106 VRB15G30KT 3SM TSRA BKN030CB=

USA.gov is the U.S. government's official web portal to all federal, state and local government web resources and services.